Hedon, United Kingdom
Current Conditions -  °F | °C
As of 2:20 PM on Thursday 23 Oct 2014 (Local Time) from EGNJ Reporting Station
Scattered Clouds Scattered Clouds  
Wind Chill: 59°   Ceiling: Unl
Heat Index: 59°   Visibility: 6mi
Dew Point: 54°   Wind: 17mph
Humidity: 82%   Direction: 190°S
Pressure: 29.94"   Gusts: NA
Location:  53.74°N, 0.2°W
Report Text: EGNJ 231320Z 19015KT 9999 SCT016 SCT022 15/12 Q1014
Loading
Personal Weather Stations






























Interactive Weather Map
Tropical Storm Tracking
New forecast layout! Learn more

10-Day Weather Forecast

Advertisements
Track Severe Weather on mobile